Time;durP1;ratioP1;P1;durP2;ratioP2;P2;SDS_P1;SDS_P2;PMS_P1;PMS_P2;Temp;Humidity;BMP_temperature;BMP_pressure;BME280_temperature;BME280_humidity;BME280_pressure;Samples;Min_cycle;Max_cycle;Signal;HPM_P1;HPM_P2
2023/01/15 00:04:05;;;;;;;1.67;1.58;;;8.60;30.20;;;;;;5061570;28;20270;-91
2023/01/15 00:09:17;;;;;;;1.98;1.40;;;8.70;33.80;;;;;;5034625;28;20209;-92
2023/01/15 00:11:44;;;;;;;1.85;1.40;;;8.60;34.50;;;;;;5062074;28;20719;-91
2023/01/15 00:14:13;;;;;;;1.73;1.33;;;8.60;36.00;;;;;;5064385;28;20205;-92
2023/01/15 00:16:40;;;;;;;2.28;1.25;;;8.50;39.40;;;;;;5065174;28;20247;-92
2023/01/15 00:19:09;;;;;;;2.03;1.25;;;8.40;42.20;;;;;;5065724;28;20210;-92
2023/01/15 00:21:36;;;;;;;1.60;1.33;;;8.30;42.60;;;;;;5063566;28;20205;-92
2023/01/15 00:32:15;;;;;;;1.83;1.73;;;8.20;46.90;;;;;;5065818;28;20209;-91
2023/01/15 00:34:43;;;;;;;1.30;1.20;;;8.20;48.90;;;;;;5060138;28;20209;-90
2023/01/15 00:37:09;;;;;;;3.38;1.73;;;8.10;46.80;;;;;;5061464;28;20231;-91
2023/01/15 00:39:37;;;;;;;1.92;1.60;;;8.10;46.80;;;;;;5059821;28;20214;-91
2023/01/15 00:42:04;;;;;;;1.55;1.42;;;8.00;48.60;;;;;;5059362;28;20680;-91
2023/01/15 00:44:32;;;;;;;2.03;1.65;;;8.00;48.40;;;;;;5060993;28;20673;-91
2023/01/15 00:47:01;;;;;;;1.92;1.73;;;8.00;50.20;;;;;;5061521;28;20205;-91
2023/01/15 00:49:28;;;;;;;2.10;1.90;;;8.00;51.80;;;;;;5060869;28;20664;-91
2023/01/15 00:51:54;;;;;;;1.60;1.50;;;8.10;51.30;;;;;;5061290;28;20202;-91
2023/01/15 00:54:22;;;;;;;1.60;1.50;;;8.00;47.60;;;;;;5064263;28;20193;-91
2023/01/15 00:56:49;;;;;;;1.60;1.50;;;8.00;50.50;;;;;;5063400;28;20237;-91
2023/01/15 00:59:16;;;;;;;2.20;2.00;;;8.00;50.30;;;;;;5064235;28;20205;-91
2023/01/15 01:01:42;;;;;;;1.85;1.58;;;8.00;49.90;;;;;;5061684;28;20684;-91
2023/01/15 01:04:11;;;;;;;1.70;1.50;;;8.00;54.80;;;;;;5064967;28;20197;-91
2023/01/15 01:06:38;;;;;;;4.10;1.60;;;8.00;53.60;;;;;;5062652;28;20209;-91
2023/01/15 01:09:05;;;;;;;1.33;1.20;;;8.00;52.10;;;;;;5057919;28;20213;-91
2023/01/15 01:11:33;;;;;;;1.65;1.20;;;8.00;57.40;;;;;;5064762;28;20201;-91
2023/01/15 01:14:01;;;;;;;1.67;1.35;;;8.00;55.60;;;;;;5062962;28;20292;-91
2023/01/15 01:16:32;;;;;;;1.20;1.10;;;8.00;61.70;;;;;;5063915;28;20926;-91
2023/01/15 01:24:24;;;;;;;1.52;1.23;;;8.10;52.70;;;;;;5067890;28;20334;-91
2023/01/15 01:26:51;;;;;;;1.40;1.30;;;8.20;53.30;;;;;;5062633;28;20201;-91
2023/01/15 01:29:22;;;;;;;1.33;1.23;;;8.30;49.60;;;;;;5063055;28;20201;-91
2023/01/15 01:31:50;;;;;;;1.20;1.10;;;8.30;52.50;;;;;;5064495;28;20209;-92
2023/01/15 01:34:18;;;;;;;1.30;1.20;;;8.10;56.70;;;;;;5061566;28;20213;-91
2023/01/15 01:36:46;;;;;;;0.93;0.90;;;8.00;55.70;;;;;;5064196;28;20211;-90
2023/01/15 01:39:16;;;;;;;1.40;1.30;;;8.00;58.50;;;;;;5060969;28;20218;-91
2023/01/15 01:41:43;;;;;;;1.30;1.20;;;8.00;55.00;;;;;;5062384;28;20213;-91
2023/01/15 01:44:43;;;;;;;1.13;1.05;;;8.00;54.40;;;;;;5064820;28;20205;-91
2023/01/15 01:47:14;;;;;;;1.27;1.08;;;8.00;53.80;;;;;;5064301;28;20565;-91
2023/01/15 01:49:43;;;;;;;1.00;1.00;;;8.00;56.20;;;;;;5063859;28;20231;-91
2023/01/15 01:54:56;;;;;;;1.30;1.20;;;8.00;56.10;;;;;;5066895;28;20213;-91
2023/01/15 01:57:24;;;;;;;1.20;1.10;;;8.00;57.00;;;;;;5068281;28;20236;-91
2023/01/15 01:59:52;;;;;;;1.10;0.95;;;8.00;59.80;;;;;;5067141;28;20262;-92
2023/01/15 02:02:23;;;;;;;1.38;1.27;;;8.00;64.10;;;;;;5067649;28;20552;-92
2023/01/15 02:04:50;;;;;;;1.45;1.10;;;8.00;55.90;;;;;;5071284;28;20202;-91
2023/01/15 02:10:31;;;;;;;0.80;0.80;;;7.90;56.50;;;;;;4987527;28;20227;-91
2023/01/15 02:13:05;;;;;;;1.40;1.00;;;7.90;55.80;;;;;;5059513;28;20658;-92
2023/01/15 02:15:37;;;;;;;1.17;1.00;;;7.90;56.50;;;;;;5069644;28;20215;-91
2023/01/15 02:18:11;;;;;;;1.20;1.10;;;7.90;58.20;;;;;;5064317;28;20240;-91
2023/01/15 02:20:42;;;;;;;1.13;1.00;;;8.00;56.10;;;;;;5062309;28;20216;-91
2023/01/15 02:27:09;;;;;;;1.15;1.05;;;7.80;59.40;;;;;;5009941;28;20220;-91
2023/01/15 02:29:46;;;;;;;2.65;1.15;;;7.90;59.50;;;;;;5063408;28;20232;-91
2023/01/15 02:32:20;;;;;;;1.20;1.00;;;7.80;57.70;;;;;;5063819;28;20201;-92
2023/01/15 02:34:52;;;;;;;2.47;1.00;;;7.90;59.70;;;;;;5064290;28;20205;-91
2023/01/15 02:40:07;;;;;;;1.25;1.10;;;7.80;63.50;;;;;;5053556;28;20270;-91
2023/01/15 02:45:25;;;;;;;1.17;1.08;;;7.80;63.30;;;;;;5057871;28;20281;-91
2023/01/15 02:47:54;;;;;;;1.27;1.00;;;7.80;64.70;;;;;;5064816;28;20204;-91
2023/01/15 02:50:25;;;;;;;1.20;1.10;;;7.80;65.70;;;;;;5068372;28;20205;-92
2023/01/15 02:52:56;;;;;;;1.30;1.20;;;7.80;65.80;;;;;;5067052;28;20208;-91
2023/01/15 02:55:27;;;;;;;0.95;0.90;;;7.80;70.30;;;;;;5061907;28;20193;-90
2023/01/15 02:57:59;;;;;;;1.73;1.05;;;7.80;67.80;;;;;;5061447;28;20221;-91
2023/01/15 03:00:29;;;;;;;1.27;1.17;;;7.80;67.40;;;;;;5062779;28;20209;-92
2023/01/15 03:03:01;;;;;;;1.15;1.05;;;7.80;69.20;;;;;;5066145;28;20668;-91
2023/01/15 03:05:32;;;;;;;1.13;1.02;;;7.90;69.20;;;;;;5060122;28;20220;-91
2023/01/15 03:08:01;;;;;;;1.45;1.20;;;7.90;68.70;;;;;;5064187;28;20220;-91
2023/01/15 03:10:35;;;;;;;1.23;1.13;;;7.90;70.40;;;;;;5058594;28;20642;-91
2023/01/15 03:13:07;;;;;;;1.52;1.05;;;7.80;72.60;;;;;;5066421;28;20197;-91
2023/01/15 03:18:51;;;;;;;0.80;0.80;;;7.90;70.40;;;;;;5066052;28;20286;-91
2023/01/15 03:21:24;;;;;;;0.90;0.90;;;8.00;70.30;;;;;;5059514;28;20194;-91
2023/01/15 03:23:54;;;;;;;1.92;0.98;;;8.00;68.30;;;;;;5064470;28;20229;-91
2023/01/15 03:26:24;;;;;;;1.27;1.17;;;8.10;69.20;;;;;;5065293;28;20193;-91
2023/01/15 03:31:59;;;;;;;1.23;0.90;;;8.00;72.90;;;;;;5064833;28;20204;-91
2023/01/15 03:34:33;;;;;;;1.20;1.10;;;7.90;74.80;;;;;;5067225;28;20194;-91
2023/01/15 03:37:00;;;;;;;2.85;1.10;;;7.90;76.00;;;;;;5065098;28;20228;-91
2023/01/15 03:39:27;;;;;;;0.93;0.93;;;7.90;76.30;;;;;;5072124;28;20204;-92
2023/01/15 03:42:06;;;;;;;1.10;1.00;;;7.90;77.20;;;;;;5063972;28;20304;-91
2023/01/15 03:47:32;;;;;;;1.58;1.42;;;8.00;80.40;;;;;;5051424;28;20206;-91
2023/01/15 03:50:06;;;;;;;1.85;1.30;;;7.90;79.30;;;;;;5060541;28;20673;-91
2023/01/15 03:52:40;;;;;;;1.15;0.98;;;7.90;79.40;;;;;;5065466;28;20209;-91
2023/01/15 03:55:14;;;;;;;1.33;1.23;;;7.90;80.90;;;;;;5066631;28;20205;-91
2023/01/15 03:57:46;;;;;;;0.88;0.88;;;7.70;80.20;;;;;;5063933;28;20700;-91
2023/01/15 04:03:03;;;;;;;1.48;1.10;;;7.70;83.50;;;;;;5067449;28;20201;-91
2023/01/15 04:05:32;;;;;;;2.15;1.25;;;7.70;82.60;;;;;;5061803;28;20209;-91
2023/01/15 04:08:00;;;;;;;1.08;0.98;;;7.70;83.00;;;;;;5064678;28;20208;-91
2023/01/15 04:10:27;;;;;;;1.08;1.05;;;7.70;80.80;;;;;;5063891;28;20213;-91
2023/01/15 04:12:54;;;;;;;0.77;0.77;;;7.90;79.80;;;;;;5065660;28;20220;-91
2023/01/15 04:15:30;;;;;;;0.98;0.95;;;8.00;80.60;;;;;;5066753;28;20668;-91
2023/01/15 04:17:57;;;;;;;1.60;1.10;;;7.90;81.20;;;;;;5063136;28;20231;-90
2023/01/15 04:20:24;;;;;;;1.10;1.00;;;7.90;82.40;;;;;;5062147;28;20201;-91
2023/01/15 04:22:50;;;;;;;1.77;1.10;;;7.90;80.70;;;;;;5064197;28;20565;-91
2023/01/15 04:25:17;;;;;;;1.20;1.10;;;7.90;80.60;;;;;;5064931;28;20224;-91
2023/01/15 04:27:44;;;;;;;1.98;0.93;;;7.90;83.20;;;;;;5062866;28;20202;-91
2023/01/15 04:30:12;;;;;;;1.38;0.90;;;7.90;81.20;;;;;;5059526;28;20198;-91
2023/01/15 04:32:40;;;;;;;1.10;1.10;;;8.00;81.70;;;;;;5066907;28;20212;-91
2023/01/15 04:35:07;;;;;;;1.40;1.27;;;8.00;80.90;;;;;;5065305;28;20209;-90
2023/01/15 04:37:34;;;;;;;0.90;0.90;;;8.20;80.80;;;;;;5060682;28;20205;-92
2023/01/15 04:40:01;;;;;;;0.90;0.90;;;8.10;80.80;;;;;;5063765;28;20232;-91
2023/01/15 04:45:12;;;;;;;1.80;1.00;;;8.10;80.20;;;;;;5065301;28;20213;-91
2023/01/15 04:47:40;;;;;;;1.20;1.10;;;8.00;81.10;;;;;;5060851;28;20708;-91
2023/01/15 04:50:09;;;;;;;1.67;0.90;;;8.00;83.50;;;;;;5058731;28;20206;-91
2023/01/15 04:52:36;;;;;;;1.30;1.20;;;8.00;82.40;;;;;;5063808;28;20207;-91
2023/01/15 04:55:03;;;;;;;1.73;1.08;;;8.00;82.40;;;;;;5063791;28;20335;-91
2023/01/15 04:57:30;;;;;;;1.30;1.20;;;8.00;84.10;;;;;;5062625;28;20437;-91
2023/01/15 04:59:57;;;;;;;1.17;1.08;;;8.00;84.10;;;;;;5061590;28;20248;-91
2023/01/15 05:02:24;;;;;;;1.20;1.10;;;8.00;83.90;;;;;;5061177;28;20305;-91
2023/01/15 05:04:52;;;;;;;1.05;0.95;;;7.90;84.90;;;;;;5063445;28;20641;-91
2023/01/15 05:07:19;;;;;;;2.00;1.30;;;7.90;86.10;;;;;;5058861;28;20208;-91
2023/01/15 05:09:50;;;;;;;1.98;1.08;;;7.90;85.50;;;;;;5060991;28;20305;-92
2023/01/15 05:12:17;;;;;;;2.47;1.17;;;7.90;86.70;;;;;;5061917;28;20236;-91
2023/01/15 05:14:44;;;;;;;1.45;0.95;;;7.90;85.90;;;;;;5065897;28;20584;-93
2023/01/15 05:17:10;;;;;;;2.10;1.20;;;7.90;87.80;;;;;;5062698;28;20292;-93
2023/01/15 05:19:37;;;;;;;1.17;1.08;;;7.80;90.20;;;;;;5064642;28;20225;-92
2023/01/15 05:24:46;;;;;;;2.15;1.25;;;7.90;86.60;;;;;;5066431;28;20211;-93
2023/01/15 05:27:13;;;;;;;1.20;1.10;;;7.90;87.90;;;;;;5069129;28;20609;-92
2023/01/15 05:29:40;;;;;;;2.72;1.42;;;7.90;89.60;;;;;;5066328;28;20220;-92
2023/01/15 05:32:07;;;;;;;1.02;0.93;;;7.80;88.70;;;;;;5070324;28;20208;-92
2023/01/15 05:37:19;;;;;;;1.40;1.20;;;8.00;87.40;;;;;;5065484;28;20331;-94
2023/01/15 05:40:08;;;;;;;1.40;1.08;;;8.10;87.40;;;;;;5068388;28;20682;-93
2023/01/15 05:42:38;;;;;;;1.90;1.20;;;8.00;87.00;;;;;;5066877;28;20282;-94
2023/01/15 05:45:05;;;;;;;1.83;1.20;;;8.10;86.70;;;;;;5064646;28;20198;-94
2023/01/15 05:47:34;;;;;;;1.48;1.38;;;8.00;87.10;;;;;;5062962;28;20209;-93
2023/01/15 05:50:01;;;;;;;1.42;1.33;;;8.10;87.20;;;;;;5061662;28;20232;-94
2023/01/15 05:52:29;;;;;;;1.50;1.40;;;8.30;84.10;;;;;;5068515;28;20209;-92
2023/01/15 05:54:56;;;;;;;1.10;1.00;;;8.20;84.00;;;;;;5065634;28;20205;-91
2023/01/15 05:57:23;;;;;;;1.23;1.13;;;8.20;84.40;;;;;;5065200;28;20245;-91
2023/01/15 05:59:54;;;;;;;0.98;0.90;;;8.20;84.80;;;;;;5062571;28;20221;-92
2023/01/15 06:02:21;;;;;;;1.20;1.10;;;8.20;84.40;;;;;;5062767;28;20209;-93
2023/01/15 06:04:48;;;;;;;1.20;1.10;;;8.20;83.60;;;;;;5063773;28;20197;-93
2023/01/15 06:07:16;;;;;;;1.25;1.00;;;8.30;80.40;;;;;;5068180;28;20207;-92
2023/01/15 06:09:44;;;;;;;0.70;0.70;;;8.50;79.40;;;;;;5062772;28;20201;-93
2023/01/15 06:12:11;;;;;;;1.05;1.00;;;8.50;78.60;;;;;;5059516;28;20213;-92
2023/01/15 06:14:38;;;;;;;1.13;1.00;;;8.60;78.80;;;;;;5064387;28;20197;-92
2023/01/15 06:17:05;;;;;;;1.27;1.00;;;8.50;79.40;;;;;;5062970;28;20209;-92
2023/01/15 06:19:32;;;;;;;1.15;0.90;;;8.50;79.30;;;;;;5068191;28;20220;-92
2023/01/15 06:21:59;;;;;;;1.33;1.23;;;8.50;80.90;;;;;;5058954;28;20612;-92
2023/01/15 06:24:26;;;;;;;1.13;1.08;;;8.60;79.10;;;;;;5067805;28;20777;-93
2023/01/15 06:26:54;;;;;;;1.25;1.00;;;8.60;78.60;;;;;;5069280;28;20213;-92
2023/01/15 06:29:21;;;;;;;0.88;0.88;;;8.60;77.10;;;;;;5064516;28;20250;-92
2023/01/15 06:31:49;;;;;;;2.33;1.13;;;8.70;78.80;;;;;;5065403;28;20209;-92
2023/01/15 06:34:16;;;;;;;1.00;0.90;;;8.70;76.70;;;;;;5069035;28;20267;-93
2023/01/15 06:36:42;;;;;;;1.65;0.90;;;8.80;78.10;;;;;;5066691;28;20228;-92
2023/01/15 06:39:09;;;;;;;0.60;0.60;;;8.80;79.40;;;;;;5064732;28;20237;-92
2023/01/15 06:47:23;;;;;;;1.48;0.60;;;10.30;73.40;;;;;;5059730;28;20248;-92
2023/01/15 06:49:51;;;;;;;0.60;0.60;;;10.50;73.60;;;;;;5069488;28;20296;-92
2023/01/15 06:52:18;;;;;;;0.57;0.57;;;10.80;74.00;;;;;;5067440;28;20197;-91
2023/01/15 06:54:53;;;;;;;0.47;0.47;;;10.90;71.90;;;;;;5061526;28;20199;-92
2023/01/15 06:57:22;;;;;;;0.93;0.63;;;11.00;71.70;;;;;;5074360;28;20240;-91
2023/01/15 06:59:51;;;;;;;0.40;0.40;;;11.20;69.00;;;;;;5070905;28;20307;-92
2023/01/15 07:02:18;;;;;;;0.50;0.50;;;11.20;69.20;;;;;;5070895;28;20265;-91
2023/01/15 07:04:45;;;;;;;1.13;0.50;;;11.40;68.10;;;;;;5069529;28;20665;-92
2023/01/15 07:07:12;;;;;;;1.02;1.00;;;11.40;67.00;;;;;;5073493;28;20223;-92
2023/01/15 07:09:39;;;;;;;0.55;0.55;;;11.40;66.60;;;;;;5068296;28;20211;-92
2023/01/15 07:12:06;;;;;;;0.55;0.55;;;11.40;66.00;;;;;;5074590;28;20197;-91
2023/01/15 07:17:16;;;;;;;0.63;0.63;;;11.50;65.60;;;;;;5047927;28;20205;-91
2023/01/15 07:19:43;;;;;;;0.57;0.57;;;11.50;64.50;;;;;;5072559;28;20228;-92
2023/01/15 07:22:10;;;;;;;0.60;0.60;;;11.60;64.00;;;;;;5069721;28;20687;-93
2023/01/15 07:24:38;;;;;;;0.60;0.60;;;11.60;64.30;;;;;;5068294;28;20225;-92
2023/01/15 07:27:06;;;;;;;0.50;0.50;;;11.60;64.40;;;;;;5071129;28;20224;-92
2023/01/15 07:29:33;;;;;;;0.73;0.73;;;11.70;63.30;;;;;;5071730;28;20273;-92
2023/01/15 07:32:00;;;;;;;2.30;0.50;;;11.70;64.40;;;;;;5081068;28;20216;-92
2023/01/15 07:34:28;;;;;;;0.60;0.60;;;11.80;63.80;;;;;;5070476;28;20208;-92
2023/01/15 07:36:55;;;;;;;0.60;0.60;;;11.70;62.90;;;;;;5073515;28;20201;-93
2023/01/15 07:39:22;;;;;;;0.60;0.60;;;11.80;64.00;;;;;;5068384;28;20220;-92
2023/01/15 07:52:49;;;;;;;0.65;0.65;;;11.80;64.40;;;;;;5064586;28;20767;-91
2023/01/15 07:55:16;;;;;;;0.68;0.68;;;11.70;63.90;;;;;;5073248;28;20288;-93
2023/01/15 07:57:43;;;;;;;0.70;0.70;;;11.80;64.40;;;;;;5073313;28;20689;-94
2023/01/15 08:02:53;;;;;;;0.70;0.70;;;11.80;62.90;;;;;;5067691;28;20656;-93
2023/01/15 08:08:02;;;;;;;0.50;0.50;;;11.80;65.30;;;;;;5061725;28;20252;-93
2023/01/15 08:10:29;;;;;;;1.77;0.68;;;11.80;65.80;;;;;;5079128;28;20211;-94
2023/01/15 08:15:42;;;;;;;0.57;0.57;;;11.90;64.70;;;;;;5075979;28;20201;-93
2023/01/15 08:18:28;;;;;;;0.50;0.50;;;12.00;65.10;;;;;;5063281;28;20197;-93
2023/01/15 08:23:37;;;;;;;0.63;0.63;;;12.00;65.80;;;;;;5054382;28;20318;-94
2023/01/15 08:26:04;;;;;;;0.43;0.43;;;12.00;66.20;;;;;;5074972;28;20216;-93
2023/01/15 08:28:32;;;;;;;1.92;0.50;;;12.00;64.50;;;;;;5063778;28;20209;-92
2023/01/15 08:30:58;;;;;;;0.60;0.60;;;12.10;64.30;;;;;;5069192;28;20566;-91
2023/01/15 08:33:25;;;;;;;0.60;0.60;;;12.10;64.40;;;;;;5077385;28;20208;-92
2023/01/15 08:35:52;;;;;;;0.80;0.80;;;12.10;65.10;;;;;;5066731;28;20597;-92
2023/01/15 08:38:20;;;;;;;0.80;0.80;;;12.00;65.80;;;;;;5067453;28;20349;-92
2023/01/15 08:40:59;;;;;;;0.50;0.50;;;12.00;65.30;;;;;;5063987;28;20225;-93
2023/01/15 08:43:26;;;;;;;0.82;0.60;;;12.00;65.80;;;;;;5071636;28;20211;-94
2023/01/15 08:45:56;;;;;;;0.60;0.60;;;12.00;65.30;;;;;;5070385;28;20212;-93
2023/01/15 09:04:51;;;;;;;0.57;0.57;;;12.20;60.70;;;;;;5075405;28;20210;-93
2023/01/15 09:09:59;;;;;;;0.47;0.47;;;12.40;56.60;;;;;;5057734;28;20201;-94
2023/01/15 09:12:26;;;;;;;0.65;0.60;;;12.50;54.30;;;;;;5087773;28;20196;-93
2023/01/15 09:20:25;;;;;;;0.82;0.80;;;12.50;53.00;;;;;;5072705;28;20225;-92
2023/01/15 09:28:03;;;;;;;1.85;1.00;;;12.60;49.10;;;;;;5031519;23;20721;-93
2023/01/15 09:30:30;;;;;;;1.85;0.70;;;12.70;45.80;;;;;;5021256;28;20210;-91
2023/01/15 09:32:58;;;;;;;0.93;0.90;;;12.80;44.90;;;;;;5023618;28;20210;-91
2023/01/15 09:35:25;;;;;;;0.70;0.70;;;12.80;45.20;;;;;;5022197;28;20198;-91
2023/01/15 09:37:52;;;;;;;1.00;1.00;;;12.90;42.90;;;;;;5022387;28;20199;-91
2023/01/15 09:43:34;;;;;;;1.33;0.70;;;13.20;39.20;;;;;;5003290;28;20293;-89
2023/01/15 09:52:29;;;;;;;0.70;0.70;;;13.60;34.50;;;;;;4987655;28;20202;-91
2023/01/15 09:57:46;;;;;;;0.80;0.80;;;13.90;31.50;;;;;;5012505;28;20214;-93
2023/01/15 10:03:31;;;;;;;0.98;0.80;;;13.90;30.40;;;;;;4951629;28;20216;-94
2023/01/15 10:09:14;;;;;;;0.88;0.80;;;13.90;30.40;;;;;;5010678;28;20255;-92
2023/01/15 10:14:50;;;;;;;0.73;0.70;;;13.70;32.30;;;;;;5032697;28;20275;-96
2023/01/15 10:20:12;;;;;;;0.50;0.50;;;12.80;43.50;;;;;;5033772;28;20226;-95
2023/01/15 10:29:02;;;;;;;0.65;0.65;;;9.70;74.60;;;;;;5008996;28;20214;-95
2023/01/15 10:31:51;;;;;;;0.60;0.60;;;9.10;77.30;;;;;;5019910;28;20207;-95
2023/01/15 10:34:57;;;;;;;1.13;0.50;;;8.80;80.90;;;;;;5016343;28;20192;-93
2023/01/15 10:37:32;;;;;;;0.60;0.60;;;8.40;82.90;;;;;;5008887;28;20611;-93
2023/01/15 10:40:37;;;;;;;0.88;0.40;;;8.30;85.60;;;;;;5015744;28;20554;-91
2023/01/15 10:43:18;;;;;;;0.50;0.50;;;8.20;87.10;;;;;;5021850;28;20220;-92
2023/01/15 10:45:47;;;;;;;0.60;0.60;;;8.00;87.10;;;;;;5020208;28;20188;-94
2023/01/15 10:48:24;;;;;;;0.38;0.38;;;7.90;88.90;;;;;;5023153;28;20225;-96
2023/01/15 10:50:51;;;;;;;0.70;0.70;;;7.90;88.60;;;;;;5012846;28;20296;-88
2023/01/15 10:59:57;;;;;;;1.88;0.43;;;7.70;89.40;;;;;;5016554;28;20730;-93
2023/01/15 11:02:29;;;;;;;0.40;0.40;;;7.60;89.20;;;;;;5011784;28;20199;-93
2023/01/15 11:04:56;;;;;;;0.50;0.50;;;7.70;88.80;;;;;;5014515;28;20194;-94
2023/01/15 11:07:33;;;;;;;0.35;0.35;;;7.70;90.20;;;;;;5017130;28;20195;-94
2023/01/15 11:10:07;;;;;;;0.68;0.68;;;7.60;90.20;;;;;;5010446;28;20734;-94
2023/01/15 11:21:32;;;;;;;0.60;0.60;;;7.60;89.00;;;;;;5017692;28;20210;-93
2023/01/15 11:26:34;;;;;;;0.45;0.45;;;7.40;90.10;;;;;;5637863;23;20723;-93
2023/01/15 11:31:54;;;;;;;0.70;0.70;;;7.40;90.10;;;;;;5007599;28;20226;-91
2023/01/15 11:34:23;;;;;;;1.17;1.00;;;7.30;90.70;;;;;;5006466;28;20245;-96
2023/01/15 11:37:00;;;;;;;0.65;0.50;;;7.30;90.80;;;;;;5007250;28;20206;-96
2023/01/15 11:39:30;;;;;;;0.45;0.40;;;7.30;90.50;;;;;;4983631;28;20219;-93
2023/01/15 11:51:22;;;;;;;1.40;0.63;;;6.90;92.80;;;;;;5006598;28;20218;-89
2023/01/15 11:53:53;;;;;;;2.33;2.13;;;6.80;93.50;;;;;;5007246;28;20191;-88
2023/01/15 11:56:23;;;;;;;2.10;1.90;;;6.90;94.10;;;;;;4992851;28;20656;-91
2023/01/15 11:58:51;;;;;;;0.90;0.90;;;6.90;94.00;;;;;;5007771;28;20204;-91
2023/01/15 12:24:51;;;;;;;3.50;2.00;;;6.40;95.90;;;;;;5384833;23;20614;-89
2023/01/15 12:27:32;;;;;;;1.00;1.00;;;6.50;95.40;;;;;;5019030;28;20216;-92
2023/01/15 12:30:03;;;;;;;1.20;1.00;;;6.60;95.40;;;;;;5020727;28;20210;-90
2023/01/15 12:32:35;;;;;;;1.27;0.70;;;6.50;95.40;;;;;;5018694;28;20208;-90
2023/01/15 12:35:10;;;;;;;0.80;0.80;;;6.40;95.40;;;;;;5027561;28;20578;-91
2023/01/15 12:37:44;;;;;;;0.80;0.80;;;6.30;95.80;;;;;;5002807;28;20633;-92
2023/01/15 12:40:20;;;;;;;1.13;1.10;;;6.30;96.00;;;;;;5025961;28;20222;-92
2023/01/15 12:45:40;;;;;;;0.80;0.80;;;6.20;95.90;;;;;;5010098;28;20241;-91
2023/01/15 12:48:14;;;;;;;0.80;0.80;;;6.20;96.00;;;;;;5022468;28;20207;-91
2023/01/15 12:53:49;;;;;;;1.00;0.87;;;6.10;96.40;;;;;;5025863;28;20213;-91
2023/01/15 12:56:22;;;;;;;0.77;0.77;;;6.20;96.60;;;;;;5024462;28;20199;-93
2023/01/15 12:58:56;;;;;;;0.90;0.90;;;6.20;96.20;;;;;;5029290;28;20217;-95
2023/01/15 13:01:32;;;;;;;0.97;0.83;;;6.20;96.60;;;;;;5029804;28;20206;-96
2023/01/15 13:09:44;;;;;;;0.90;0.90;;;6.30;96.70;;;;;;5036146;28;20210;-92
2023/01/15 13:14:54;;;;;;;1.20;1.10;;;6.40;97.20;;;;;;5038328;28;20214;-94
2023/01/15 13:17:29;;;;;;;1.63;1.30;;;6.40;97.10;;;;;;5026805;28;20207;-91
2023/01/15 13:20:14;;;;;;;1.30;1.20;;;6.40;97.00;;;;;;5039380;28;20228;-92
2023/01/15 13:22:54;;;;;;;1.07;1.07;;;6.40;97.30;;;;;;5043942;28;20232;-90
2023/01/15 13:25:42;;;;;;;0.97;0.93;;;6.40;97.40;;;;;;5063574;28;20194;-93
2023/01/15 13:28:24;;;;;;;1.33;0.80;;;6.50;97.40;;;;;;5056087;28;20213;-95
2023/01/15 13:34:33;;;;;;;1.23;1.00;;;6.30;95.40;;;;;;5062824;28;20181;-95
2023/01/15 13:37:05;;;;;;;0.90;0.90;;;6.40;94.50;;;;;;5061509;28;20194;-93
2023/01/15 13:39:57;;;;;;;3.30;2.57;;;6.40;94.70;;;;;;5071613;28;20204;-95
2023/01/15 13:42:31;;;;;;;0.73;0.73;;;6.50;94.80;;;;;;5061059;28;20210;-94
2023/01/15 13:45:04;;;;;;;1.40;1.30;;;6.50;92.70;;;;;;5709794;22;20204;-94
2023/01/15 13:50:18;;;;;;;0.67;0.60;;;6.40;92.20;;;;;;5032738;28;20210;-93
2023/01/15 13:55:35;;;;;;;0.60;0.60;;;6.30;92.30;;;;;;5030884;28;20577;-92
2023/01/15 13:58:02;;;;;;;0.47;0.47;;;6.40;92.10;;;;;;5042483;28;20642;-93
2023/01/15 14:00:35;;;;;;;0.73;0.73;;;6.30;91.50;;;;;;5040934;28;20214;-93
2023/01/15 14:03:03;;;;;;;0.60;0.60;;;6.20;91.60;;;;;;5043614;28;20655;-95
2023/01/15 14:19:25;;;;;;;0.93;0.80;;;6.10;92.10;;;;;;5042876;28;20186;-94
2023/01/15 14:28:48;;;;;;;0.47;0.47;;;6.00;91.50;;;;;;5190317;23;20236;-93
2023/01/15 14:31:30;;;;;;;0.60;0.60;;;6.00;91.50;;;;;;5054728;28;20214;-92
2023/01/15 14:34:12;;;;;;;1.07;1.07;;;6.00;92.00;;;;;;5055472;28;20206;-95
2023/01/15 14:40:18;;;;;;;0.40;0.40;;;5.80;92.70;;;;;;5016985;28;20207;-93
2023/01/15 14:53:52;;;;;;;1.50;0.70;;;5.20;95.10;;;;;;5005779;28;20196;-91
2023/01/15 15:02:42;;;;;;;1.30;1.30;;;4.80;96.60;;;;;;4997498;28;20250;-90
2023/01/15 15:15:38;;;;;;;1.60;1.50;;;4.40;97.70;;;;;;5048619;28;20213;-89
2023/01/15 15:28:43;;;;;;;1.40;0.73;;;4.20;99.70;;;;;;5063550;28;20196;-92
2023/01/15 15:33:58;;;;;;;1.00;0.70;;;4.30;99.80;;;;;;5063481;28;20198;-92
2023/01/15 16:17:03;;;;;;;5.83;3.77;;;6.50;95.40;;;;;;5071713;28;20182;-94
2023/01/15 16:37:31;;;;;;;0.70;0.70;;;4.90;96.10;;;;;;5035638;28;20205;-89
2023/01/15 16:40:01;;;;;;;0.70;0.70;;;4.80;95.80;;;;;;5044753;28;20229;-94
2023/01/15 16:42:34;;;;;;;1.33;1.30;;;4.70;95.00;;;;;;5030123;28;20703;-89
2023/01/15 16:45:26;;;;;;;1.50;1.40;;;4.60;95.00;;;;;;5013180;28;20292;-91
2023/01/15 17:05:48;;;;;;;2.97;1.80;;;4.50;93.20;;;;;;5006019;28;20918;-94
2023/01/15 17:11:32;;;;;;;1.23;0.83;;;4.50;93.40;;;;;;4986542;28;20204;-93
2023/01/15 17:14:28;;;;;;;2.33;1.20;;;4.50;93.40;;;;;;5003539;28;20212;-93
2023/01/15 17:20:14;;;;;;;2.80;1.40;;;4.40;92.80;;;;;;5007241;28;20209;-88
2023/01/15 17:32:18;;;;;;;1.73;1.00;;;4.40;92.30;;;;;;5019665;28;20221;-90
2023/01/15 17:34:44;;;;;;;1.10;1.00;;;4.40;92.60;;;;;;5019886;28;20203;-89
2023/01/15 17:37:11;;;;;;;1.50;1.03;;;4.30;92.60;;;;;;5024308;28;20269;-90
2023/01/15 17:39:38;;;;;;;2.43;0.97;;;4.40;92.50;;;;;;5020970;28;20234;-91
2023/01/15 17:49:13;;;;;;;3.20;0.93;;;4.40;91.50;;;;;;5017914;28;20651;-89
2023/01/15 18:06:52;;;;;;;1.83;1.13;;;4.30;91.20;;;;;;4998471;28;20182;-90
2023/01/15 18:09:21;;;;;;;1.10;1.00;;;4.20;90.80;;;;;;5130875;23;20241;-91
2023/01/15 18:11:48;;;;;;;3.17;1.50;;;4.20;90.10;;;;;;5022553;28;20211;-92
2023/01/15 18:14:15;;;;;;;3.10;1.40;;;4.20;90.90;;;;;;5009864;28;20207;-91
2023/01/15 18:16:42;;;;;;;2.77;1.40;;;4.30;90.40;;;;;;5012715;28;20303;-91
2023/01/15 18:19:09;;;;;;;1.80;1.30;;;4.20;90.40;;;;;;5020224;28;20202;-91
2023/01/15 18:21:39;;;;;;;1.87;1.37;;;4.30;90.10;;;;;;5029106;28;20234;-91
2023/01/15 18:24:11;;;;;;;2.50;1.10;;;4.40;88.90;;;;;;5008675;28;20212;-93
2023/01/15 18:26:39;;;;;;;3.73;1.30;;;4.30;89.30;;;;;;4992504;28;20212;-93
2023/01/15 18:31:52;;;;;;;1.40;1.10;;;4.30;89.70;;;;;;4992139;28;20212;-91
2023/01/15 18:34:23;;;;;;;3.33;1.17;;;4.30;88.50;;;;;;4991169;28;20295;-92
2023/01/15 18:36:51;;;;;;;3.40;1.30;;;4.30;88.50;;;;;;5003567;28;20208;-93
2023/01/15 18:39:51;;;;;;;1.83;1.20;;;4.30;89.10;;;;;;4998610;28;20238;-89
2023/01/15 18:48:01;;;;;;;1.53;1.00;;;4.40;88.60;;;;;;4996091;28;20206;-89
2023/01/15 18:50:29;;;;;;;1.00;0.90;;;4.40;88.60;;;;;;5002883;28;20251;-90
2023/01/15 18:52:56;;;;;;;1.20;1.00;;;4.30;88.50;;;;;;4998952;28;20210;-90
2023/01/15 19:01:37;;;;;;;1.40;1.10;;;4.30;88.60;;;;;;4996973;28;20230;-93
2023/01/15 19:04:05;;;;;;;2.97;1.10;;;4.30;87.50;;;;;;4983432;28;20652;-90
2023/01/15 19:06:33;;;;;;;1.57;0.97;;;4.30;86.70;;;;;;4997137;28;20530;-90
2023/01/15 19:09:29;;;;;;;1.20;1.00;;;4.20;85.40;;;;;;4993204;28;20235;-89
2023/01/15 19:11:58;;;;;;;1.73;1.27;;;4.20;83.70;;;;;;4979533;28;20673;-90
2023/01/15 19:19:59;;;;;;;2.50;1.07;;;4.10;86.10;;;;;;4986919;28;20217;-90
2023/01/15 19:25:33;;;;;;;2.00;1.30;;;4.00;85.30;;;;;;5010511;28;20202;-89
2023/01/15 19:34:10;;;;;;;3.90;1.50;;;4.00;84.30;;;;;;4997218;28;20227;-94
2023/01/15 19:36:37;;;;;;;2.17;1.97;;;4.00;84.80;;;;;;4945805;28;20655;-91
2023/01/15 19:39:04;;;;;;;4.80;1.40;;;3.90;85.20;;;;;;4993909;28;20221;-93
2023/01/15 19:52:34;;;;;;;4.87;1.80;;;3.70;86.90;;;;;;4987031;28;20736;-91
2023/01/15 19:55:02;;;;;;;2.23;1.50;;;3.70;86.40;;;;;;4979907;28;20197;-92
2023/01/15 19:57:29;;;;;;;1.87;1.40;;;3.60;86.60;;;;;;4988893;28;20287;-90
2023/01/15 19:59:57;;;;;;;2.23;1.30;;;3.70;83.50;;;;;;4983693;28;20203;-91
2023/01/15 20:02:27;;;;;;;2.03;1.67;;;3.70;82.20;;;;;;4989372;28;20232;-91
2023/01/15 20:04:54;;;;;;;3.20;1.57;;;3.60;83.70;;;;;;4988514;28;20200;-90
2023/01/15 20:07:21;;;;;;;2.77;1.47;;;3.60;83.70;;;;;;4988595;28;20211;-92
2023/01/15 20:09:48;;;;;;;2.03;1.50;;;3.50;85.00;;;;;;4989322;28;20266;-92
2023/01/15 20:15:00;;;;;;;2.07;1.60;;;3.50;86.70;;;;;;4989168;28;20215;-93
2023/01/15 20:17:33;;;;;;;2.57;1.67;;;3.50;84.70;;;;;;4997143;28;20255;-93
2023/01/15 20:20:00;;;;;;;2.83;1.20;;;3.40;86.20;;;;;;4977673;28;20188;-93
2023/01/15 20:27:53;;;;;;;1.83;1.23;;;3.30;85.60;;;;;;4996366;28;20216;-92
2023/01/15 20:30:29;;;;;;;2.50;1.50;;;3.30;85.40;;;;;;4998232;28;20215;-92
2023/01/15 20:33:00;;;;;;;2.00;1.20;;;3.40;82.10;;;;;;4994657;28;20227;-91
2023/01/15 20:38:10;;;;;;;2.03;1.60;;;3.40;81.90;;;;;;4987251;28;20283;-91
2023/01/15 20:51:54;;;;;;;2.70;1.47;;;3.20;84.60;;;;;;5071206;28;20306;-91
2023/01/15 20:54:21;;;;;;;1.97;1.40;;;3.20;86.00;;;;;;5075597;28;20197;-90
2023/01/15 20:56:51;;;;;;;2.73;1.77;;;3.00;85.50;;;;;;5086469;28;20224;-91